Time;durP1;ratioP1;P1;durP2;ratioP2;P2;SDS_P1;SDS_P2;PMS_P1;PMS_P2;Temp;Humidity;BMP_temperature;BMP_pressure;BME280_temperature;BME280_humidity;BME280_pressure;Samples;Min_cycle;Max_cycle;Signal;HPM_P1;HPM_P2
2023/06/20 00:01:22;;;;;;;5.30;4.90;;;23.20;99.90;;;;;;5100911;27;20792;-75
2023/06/20 00:03:49;;;;;;;5.85;5.35;;;23.20;99.90;;;;;;5101132;27;20284;-75
2023/06/20 00:06:15;;;;;;;5.35;4.95;;;23.20;99.90;;;;;;5099902;27;20225;-75
2023/06/20 00:08:42;;;;;;;5.72;5.28;;;23.10;99.90;;;;;;5098385;27;20220;-76
2023/06/20 00:11:09;;;;;;;5.65;5.25;;;23.00;99.90;;;;;;5107501;27;20199;-75
2023/06/20 00:13:42;;;;;;;5.15;4.75;;;23.00;99.90;;;;;;5103871;27;20946;-75
2023/06/20 00:16:09;;;;;;;5.70;5.30;;;22.90;99.90;;;;;;5103414;27;20200;-75
2023/06/20 00:18:36;;;;;;;5.97;5.47;;;22.90;99.90;;;;;;5123714;27;20235;-75
2023/06/20 00:21:03;;;;;;;5.85;5.45;;;22.90;99.90;;;;;;5114427;27;20244;-75
2023/06/20 00:23:31;;;;;;;5.78;5.38;;;23.00;99.90;;;;;;5105325;27;20748;-75
2023/06/20 00:25:58;;;;;;;6.40;5.80;;;22.90;99.90;;;;;;5109530;27;20243;-75
2023/06/20 00:28:25;;;;;;;6.10;5.60;;;22.90;99.90;;;;;;5102922;27;20260;-76
2023/06/20 00:30:53;;;;;;;6.10;5.70;;;22.90;99.90;;;;;;5102469;27;20280;-75
2023/06/20 00:33:20;;;;;;;6.20;5.70;;;22.80;99.90;;;;;;5110816;27;20200;-75
2023/06/20 00:35:47;;;;;;;5.35;4.95;;;22.70;99.90;;;;;;5102917;27;20292;-75
2023/06/20 00:38:14;;;;;;;5.47;5.05;;;22.60;99.90;;;;;;5112134;27;20284;-74
2023/06/20 00:40:41;;;;;;;5.90;5.50;;;22.60;99.90;;;;;;5114950;27;20240;-75
2023/06/20 00:43:09;;;;;;;5.60;5.20;;;22.60;99.90;;;;;;5104200;27;20194;-75
2023/06/20 00:45:36;;;;;;;5.68;5.28;;;22.60;99.90;;;;;;5105054;27;20927;-75
2023/06/20 00:48:06;;;;;;;5.13;4.72;;;22.50;99.90;;;;;;5108897;27;20304;-75
2023/06/20 00:50:34;;;;;;;5.90;5.50;;;22.50;99.90;;;;;;5105642;27;20300;-75
2023/06/20 00:53:04;;;;;;;6.15;5.63;;;22.50;99.90;;;;;;5101487;27;20296;-75
2023/06/20 00:55:33;;;;;;;6.60;6.10;;;22.60;99.90;;;;;;5109273;27;20636;-75
2023/06/20 00:58:01;;;;;;;5.63;5.22;;;22.60;99.90;;;;;;5102129;27;20251;-75
2023/06/20 01:00:30;;;;;;;5.88;5.43;;;22.60;99.90;;;;;;5106024;27;20275;-76
2023/06/20 01:03:01;;;;;;;5.82;5.38;;;22.60;99.90;;;;;;5103513;27;20201;-75
2023/06/20 01:05:30;;;;;;;5.45;5.05;;;22.60;99.90;;;;;;5102724;27;20213;-75
2023/06/20 01:08:04;;;;;;;5.70;5.30;;;22.50;99.90;;;;;;5107001;27;20303;-75
2023/06/20 01:10:40;;;;;;;5.53;5.07;;;22.50;99.90;;;;;;5105320;27;20766;-75
2023/06/20 01:13:16;;;;;;;6.53;5.93;;;22.40;99.90;;;;;;5101749;27;22170;-75
2023/06/20 01:15:49;;;;;;;6.53;6.03;;;22.40;99.90;;;;;;5103487;27;20284;-75
2023/06/20 01:18:25;;;;;;;5.90;5.40;;;22.30;99.90;;;;;;5104262;27;20225;-75
2023/06/20 01:21:02;;;;;;;6.45;5.85;;;22.30;99.90;;;;;;5103610;27;20248;-75
2023/06/20 01:23:35;;;;;;;5.80;5.40;;;22.30;99.90;;;;;;5105613;27;20249;-75
2023/06/20 01:26:06;;;;;;;6.50;6.00;;;22.30;99.90;;;;;;5105596;27;20280;-74
2023/06/20 01:28:52;;;;;;;6.70;6.20;;;22.30;99.90;;;;;;5107532;27;21707;-75
2023/06/20 01:31:23;;;;;;;6.70;6.13;;;22.30;99.90;;;;;;5102765;27;20385;-75
2023/06/20 01:33:54;;;;;;;6.25;5.68;;;22.30;99.90;;;;;;5102073;27;20197;-75
2023/06/20 01:36:23;;;;;;;6.90;6.20;;;22.40;99.90;;;;;;5109039;27;20223;-76
2023/06/20 01:38:58;;;;;;;7.20;6.60;;;22.40;99.90;;;;;;5103901;28;20295;-74
2023/06/20 01:41:27;;;;;;;6.38;5.88;;;22.50;99.90;;;;;;5100762;27;20212;-75
2023/06/20 01:43:56;;;;;;;5.82;5.30;;;22.50;99.90;;;;;;5106351;27;20287;-76
2023/06/20 01:46:24;;;;;;;6.53;6.03;;;22.40;99.90;;;;;;5101874;28;20245;-75
2023/06/20 01:48:53;;;;;;;5.90;5.40;;;22.40;99.90;;;;;;5103224;28;20223;-74
2023/06/20 01:51:21;;;;;;;5.95;5.50;;;22.40;99.90;;;;;;5105851;28;20284;-75
2023/06/20 01:53:49;;;;;;;6.30;5.80;;;22.30;99.90;;;;;;5105361;28;20261;-76
2023/06/20 01:56:18;;;;;;;6.05;5.55;;;22.30;99.90;;;;;;5100291;28;20866;-75
2023/06/20 01:58:47;;;;;;;5.93;5.53;;;22.30;99.90;;;;;;5103256;28;20252;-75
2023/06/20 02:01:16;;;;;;;6.72;6.22;;;22.20;99.90;;;;;;5098151;28;20244;-73
2023/06/20 02:03:44;;;;;;;6.35;5.85;;;22.20;99.90;;;;;;5100515;28;20257;-75
2023/06/20 02:06:13;;;;;;;6.80;6.20;;;22.20;99.90;;;;;;5107422;28;20726;-75
2023/06/20 02:08:41;;;;;;;6.47;5.97;;;22.10;99.90;;;;;;5105656;28;20231;-75
2023/06/20 02:11:09;;;;;;;6.10;5.60;;;22.10;99.90;;;;;;5113764;28;20205;-76
2023/06/20 02:13:38;;;;;;;6.50;5.90;;;22.20;99.90;;;;;;5113980;28;20797;-75
2023/06/20 02:16:08;;;;;;;6.53;6.03;;;22.10;99.90;;;;;;5109455;27;20221;-75
2023/06/20 02:18:36;;;;;;;6.15;5.63;;;22.10;99.90;;;;;;5105818;27;20216;-75
2023/06/20 02:21:07;;;;;;;6.60;6.10;;;22.10;99.90;;;;;;5107558;27;20281;-76
2023/06/20 02:23:36;;;;;;;6.38;5.88;;;22.00;99.90;;;;;;5107341;27;20558;-75
2023/06/20 02:26:07;;;;;;;6.70;6.20;;;22.10;99.90;;;;;;5107459;27;20288;-75
2023/06/20 02:28:36;;;;;;;5.85;5.35;;;22.20;99.90;;;;;;5112828;27;20303;-75
2023/06/20 02:31:07;;;;;;;7.25;6.65;;;22.30;99.90;;;;;;5105276;27;20631;-75
2023/06/20 02:33:35;;;;;;;6.60;6.10;;;22.30;99.90;;;;;;5118444;27;20240;-75
2023/06/20 02:36:03;;;;;;;6.68;6.10;;;22.30;99.90;;;;;;5113489;27;20393;-75
2023/06/20 02:38:31;;;;;;;6.38;5.80;;;22.30;99.90;;;;;;5105682;27;20257;-75
2023/06/20 02:40:58;;;;;;;6.38;5.88;;;22.20;99.90;;;;;;5104066;27;20209;-75
2023/06/20 02:43:25;;;;;;;6.35;5.85;;;22.20;99.90;;;;;;5111064;27;20831;-75
2023/06/20 02:46:00;;;;;;;6.47;5.97;;;22.20;99.90;;;;;;5110816;27;20242;-76
2023/06/20 02:48:43;;;;;;;7.57;6.97;;;22.20;99.90;;;;;;5112510;27;20288;-75
2023/06/20 02:51:16;;;;;;;6.18;5.70;;;22.10;99.90;;;;;;5107639;27;20869;-76
2023/06/20 02:53:53;;;;;;;6.10;5.60;;;22.00;99.90;;;;;;5101888;27;20221;-75
2023/06/20 02:56:20;;;;;;;6.68;6.18;;;22.00;99.90;;;;;;5111852;27;20201;-74
2023/06/20 02:58:52;;;;;;;6.32;5.82;;;21.90;99.90;;;;;;5110504;27;20281;-75
2023/06/20 03:01:23;;;;;;;7.00;6.40;;;21.90;99.90;;;;;;5104219;27;20304;-76
2023/06/20 03:03:54;;;;;;;6.20;5.80;;;21.80;99.90;;;;;;5111297;27;20244;-75
2023/06/20 03:06:27;;;;;;;6.32;5.82;;;21.80;99.90;;;;;;5106994;27;20221;-75
2023/06/20 03:08:55;;;;;;;6.43;5.93;;;21.80;99.90;;;;;;5108292;27;20216;-75
2023/06/20 03:11:23;;;;;;;6.68;6.18;;;21.80;99.90;;;;;;5107724;27;20197;-75
2023/06/20 03:13:51;;;;;;;6.18;5.78;;;21.90;99.90;;;;;;5112168;27;20299;-75
2023/06/20 03:16:18;;;;;;;6.47;5.88;;;21.90;99.90;;;;;;5109879;27;20296;-75
2023/06/20 03:18:47;;;;;;;7.20;6.60;;;22.00;99.90;;;;;;5113779;27;20685;-75
2023/06/20 03:21:15;;;;;;;6.05;5.57;;;22.00;99.90;;;;;;5109691;27;20213;-75
2023/06/20 03:23:43;;;;;;;6.70;6.05;;;22.00;99.90;;;;;;5107665;27;20255;-76
2023/06/20 03:26:10;;;;;;;6.57;6.07;;;22.00;99.90;;;;;;5106518;27;22391;-75
2023/06/20 03:28:37;;;;;;;6.88;6.32;;;22.10;99.90;;;;;;5105726;27;20217;-75
2023/06/20 03:31:04;;;;;;;6.78;6.28;;;22.00;99.90;;;;;;5117650;27;20247;-75
2023/06/20 03:33:31;;;;;;;6.97;6.47;;;22.00;99.90;;;;;;5109881;27;20278;-75
2023/06/20 03:35:59;;;;;;;7.38;6.78;;;21.90;99.90;;;;;;5105133;27;20192;-75
2023/06/20 03:38:28;;;;;;;7.53;6.93;;;21.90;99.90;;;;;;5113793;27;20232;-75
2023/06/20 03:40:55;;;;;;;7.22;6.63;;;21.90;99.90;;;;;;5113072;27;20252;-75
2023/06/20 03:43:22;;;;;;;7.80;7.10;;;22.00;99.90;;;;;;5105656;27;20225;-75
2023/06/20 03:45:48;;;;;;;7.10;6.60;;;22.00;99.90;;;;;;5109388;27;20885;-75
2023/06/20 03:48:17;;;;;;;6.90;6.40;;;22.00;99.90;;;;;;5110358;27;20227;-76
2023/06/20 03:50:44;;;;;;;7.10;6.60;;;22.00;99.90;;;;;;5106150;27;20715;-75
2023/06/20 03:53:11;;;;;;;6.65;6.15;;;21.90;99.90;;;;;;5102672;27;20283;-75
2023/06/20 03:55:39;;;;;;;6.68;6.10;;;21.80;99.90;;;;;;5114603;27;20204;-75
2023/06/20 03:58:06;;;;;;;6.82;6.32;;;21.80;99.90;;;;;;5105965;27;20293;-74
2023/06/20 04:00:33;;;;;;;6.38;5.88;;;21.80;99.90;;;;;;5108846;27;20254;-75
2023/06/20 04:03:01;;;;;;;6.00;5.60;;;21.80;99.90;;;;;;5113233;27;20213;-75
2023/06/20 04:05:28;;;;;;;6.90;6.30;;;21.90;99.90;;;;;;5122335;27;20196;-75
2023/06/20 04:07:55;;;;;;;7.05;6.55;;;21.90;99.90;;;;;;5112229;27;20223;-75
2023/06/20 04:10:22;;;;;;;6.93;6.43;;;22.00;99.90;;;;;;5108415;27;20239;-75
2023/06/20 04:12:50;;;;;;;6.97;6.47;;;22.10;99.90;;;;;;5101802;27;20629;-75
2023/06/20 04:15:17;;;;;;;6.85;6.20;;;22.10;99.90;;;;;;5106373;27;20689;-75
2023/06/20 04:17:45;;;;;;;7.10;6.60;;;22.20;99.90;;;;;;5109781;27;20271;-75
2023/06/20 04:20:13;;;;;;;6.70;6.20;;;22.20;99.90;;;;;;5111895;27;20200;-76
2023/06/20 04:22:42;;;;;;;7.07;6.57;;;22.30;99.90;;;;;;5107170;27;20217;-75
2023/06/20 04:25:09;;;;;;;6.22;5.70;;;22.20;99.90;;;;;;5111226;27;20199;-75
2023/06/20 04:27:36;;;;;;;6.95;6.35;;;22.20;99.90;;;;;;5116535;27;20255;-75
2023/06/20 04:30:06;;;;;;;7.13;6.53;;;22.20;99.90;;;;;;5112897;27;21649;-76
2023/06/20 04:32:33;;;;;;;7.22;6.63;;;22.20;99.90;;;;;;5111060;27;20238;-75
2023/06/20 04:35:00;;;;;;;6.47;5.97;;;22.30;99.90;;;;;;5112513;27;20205;-75
2023/06/20 04:37:29;;;;;;;6.82;6.32;;;22.30;99.90;;;;;;5109144;27;21153;-75
2023/06/20 04:39:57;;;;;;;7.05;6.55;;;22.30;99.90;;;;;;5110255;27;20241;-76
2023/06/20 04:42:24;;;;;;;6.82;6.32;;;22.40;99.90;;;;;;5110787;27;20615;-76
2023/06/20 04:44:51;;;;;;;7.40;6.80;;;22.30;99.90;;;;;;5109067;27;20258;-76
2023/06/20 04:47:19;;;;;;;6.93;6.38;;;22.30;99.90;;;;;;5108301;27;20218;-75
2023/06/20 04:49:46;;;;;;;7.10;6.50;;;22.30;99.90;;;;;;5112877;27;20208;-75
2023/06/20 04:52:13;;;;;;;6.38;5.88;;;22.40;99.90;;;;;;5112418;27;20189;-75
2023/06/20 04:54:42;;;;;;;6.57;6.07;;;22.40;99.90;;;;;;5104815;27;20197;-75
2023/06/20 04:57:09;;;;;;;7.68;7.05;;;22.30;99.90;;;;;;5104861;27;20724;-75
2023/06/20 04:59:38;;;;;;;6.43;5.93;;;22.10;99.90;;;;;;5107863;27;20851;-75
2023/06/20 05:02:06;;;;;;;7.00;6.50;;;21.90;99.90;;;;;;5101171;27;20221;-76
2023/06/20 05:04:36;;;;;;;7.10;6.53;;;21.90;99.90;;;;;;5110953;27;20197;-76
2023/06/20 05:07:03;;;;;;;7.95;7.25;;;21.80;99.90;;;;;;5111160;27;20716;-75
2023/06/20 05:09:30;;;;;;;8.35;7.55;;;21.90;99.90;;;;;;5101269;27;20216;-75
2023/06/20 05:11:57;;;;;;;7.63;6.93;;;22.00;99.90;;;;;;5108906;27;20251;-76
2023/06/20 05:14:23;;;;;;;7.75;7.05;;;22.10;99.90;;;;;;5112086;27;21151;-75
2023/06/20 05:16:50;;;;;;;7.32;6.80;;;22.10;99.90;;;;;;5105574;27;20324;-74
2023/06/20 05:19:18;;;;;;;7.28;6.63;;;22.20;99.90;;;;;;5100702;27;20223;-75
2023/06/20 05:21:47;;;;;;;6.93;6.43;;;22.30;99.90;;;;;;5107381;27;20212;-76
2023/06/20 05:24:14;;;;;;;7.75;7.15;;;22.40;99.90;;;;;;5107793;28;20292;-76
2023/06/20 05:26:41;;;;;;;7.18;6.57;;;22.50;99.90;;;;;;5111782;27;20232;-75
2023/06/20 05:29:08;;;;;;;8.38;7.75;;;22.50;99.90;;;;;;5110144;27;20264;-75
2023/06/20 05:31:39;;;;;;;8.00;7.40;;;22.50;99.90;;;;;;5106403;27;20217;-75
2023/06/20 05:34:06;;;;;;;7.63;7.03;;;22.50;99.90;;;;;;5105303;27;20197;-75
2023/06/20 05:36:33;;;;;;;7.50;6.90;;;22.50;99.90;;;;;;5105881;27;20327;-75
2023/06/20 05:39:02;;;;;;;8.18;7.47;;;22.50;99.90;;;;;;5110992;27;20248;-76
2023/06/20 05:41:29;;;;;;;6.95;6.40;;;22.60;99.90;;;;;;5107821;27;20306;-75
2023/06/20 05:43:56;;;;;;;8.25;7.32;;;22.70;99.90;;;;;;5109062;27;20283;-75
2023/06/20 05:46:23;;;;;;;7.72;7.03;;;22.70;99.90;;;;;;5098130;27;20220;-76
2023/06/20 05:48:50;;;;;;;8.00;7.32;;;22.80;99.90;;;;;;5107714;28;20272;-75
2023/06/20 05:51:17;;;;;;;8.40;7.60;;;22.90;99.90;;;;;;5113468;27;20193;-75
2023/06/20 05:53:44;;;;;;;9.43;8.57;;;22.90;99.90;;;;;;5096910;28;20236;-74
2023/06/20 05:56:13;;;;;;;9.60;8.80;;;23.00;99.90;;;;;;5121565;28;20215;-76
2023/06/20 05:58:42;;;;;;;8.63;7.93;;;23.10;99.90;;;;;;5121449;28;20258;-75
2023/06/20 06:01:09;;;;;;;8.85;8.15;;;23.20;99.90;;;;;;5108873;28;20196;-74
2023/06/20 06:03:36;;;;;;;9.25;8.52;;;23.10;99.90;;;;;;5110114;28;20308;-74
2023/06/20 06:06:03;;;;;;;8.95;8.25;;;23.10;99.90;;;;;;5110368;27;20280;-74
2023/06/20 06:08:30;;;;;;;9.75;9.02;;;23.00;99.90;;;;;;5104589;28;20224;-75
2023/06/20 06:10:57;;;;;;;11.20;10.32;;;22.90;99.90;;;;;;5101889;28;20272;-74
2023/06/20 06:13:27;;;;;;;10.85;9.90;;;22.90;99.90;;;;;;5106120;28;20193;-74
2023/06/20 06:15:54;;;;;;;10.40;9.60;;;23.00;99.90;;;;;;5099313;28;20205;-75
2023/06/20 06:18:21;;;;;;;11.18;10.18;;;23.20;99.90;;;;;;5110000;28;20240;-75
2023/06/20 06:20:47;;;;;;;10.65;9.75;;;23.50;99.90;;;;;;5101963;28;20197;-74
2023/06/20 06:23:14;;;;;;;11.27;10.35;;;23.70;99.90;;;;;;5109945;27;20804;-75
2023/06/20 06:25:44;;;;;;;11.85;10.85;;;23.80;99.90;;;;;;5104336;27;20692;-73
2023/06/20 06:28:11;;;;;;;12.15;10.98;;;23.80;99.90;;;;;;5100834;28;20331;-74
2023/06/20 06:30:39;;;;;;;11.25;10.35;;;23.80;99.90;;;;;;5100662;28;20312;-74
2023/06/20 06:33:08;;;;;;;10.88;9.98;;;23.90;99.90;;;;;;5100101;28;20444;-75
2023/06/20 06:35:35;;;;;;;10.77;9.77;;;24.10;99.90;;;;;;5106739;28;20196;-76
2023/06/20 06:38:03;;;;;;;11.98;10.98;;;24.30;99.90;;;;;;5099744;28;20244;-74
2023/06/20 06:40:30;;;;;;;12.52;11.43;;;24.50;99.90;;;;;;5091079;28;20708;-74
2023/06/20 06:42:57;;;;;;;11.57;10.57;;;24.50;99.90;;;;;;5098366;28;20644;-74
2023/06/20 06:45:24;;;;;;;12.27;11.18;;;24.40;99.90;;;;;;5104310;28;20296;-75
2023/06/20 06:47:52;;;;;;;12.25;11.15;;;24.50;99.90;;;;;;5105258;28;20718;-74
2023/06/20 06:50:19;;;;;;;12.75;11.65;;;24.60;99.90;;;;;;5104822;27;20235;-74
2023/06/20 06:52:46;;;;;;;11.05;10.23;;;24.70;99.90;;;;;;5104140;28;20200;-78
2023/06/20 06:55:13;;;;;;;11.50;10.60;;;24.60;99.90;;;;;;5108086;28;20201;-74
2023/06/20 06:57:41;;;;;;;11.52;10.52;;;24.60;99.90;;;;;;5104447;28;20264;-76
2023/06/20 07:00:11;;;;;;;10.80;9.90;;;24.70;99.90;;;;;;5112680;27;20225;-73
2023/06/20 07:02:39;;;;;;;10.60;9.77;;;24.70;99.90;;;;;;5112411;27;20303;-74
2023/06/20 07:05:08;;;;;;;10.55;9.70;;;24.80;99.90;;;;;;5109692;27;20235;-74
2023/06/20 07:07:35;;;;;;;11.02;10.00;;;24.80;99.90;;;;;;5105739;27;20254;-76
2023/06/20 07:10:02;;;;;;;11.52;10.63;;;25.00;99.90;;;;;;5107345;27;20895;-77
2023/06/20 07:12:29;;;;;;;11.00;10.13;;;25.10;99.90;;;;;;5103859;27;20907;-76
2023/06/20 07:14:56;;;;;;;10.88;9.98;;;25.30;99.90;;;;;;5107985;27;20201;-76
2023/06/20 07:47:44;;;;;;;11.60;10.45;;;26.40;99.90;;;;;;5101433;27;20282;-76
2023/06/20 07:50:11;;;;;;;10.43;9.48;;;26.30;99.90;;;;;;5108411;27;20670;-76
2023/06/20 07:52:40;;;;;;;11.40;10.30;;;26.50;99.90;;;;;;5092171;27;20283;-76
2023/06/20 07:55:07;;;;;;;10.52;9.73;;;26.70;99.90;;;;;;5105974;27;20461;-76
2023/06/20 07:57:34;;;;;;;12.27;11.18;;;26.80;99.90;;;;;;5102806;27;20201;-76
2023/06/20 08:00:08;;;;;;;11.25;10.35;;;26.80;99.90;;;;;;5097439;27;20205;-76
2023/06/20 08:02:35;;;;;;;11.68;10.68;;;26.90;99.90;;;;;;5096737;27;20613;-77
2023/06/20 08:05:04;;;;;;;12.30;11.30;;;27.10;99.90;;;;;;5099308;27;20221;-76
2023/06/20 08:07:31;;;;;;;11.57;10.63;;;27.30;99.90;;;;;;5099978;27;20202;-73
2023/06/20 08:09:58;;;;;;;11.90;10.80;;;27.30;99.90;;;;;;5096505;27;20703;-77
2023/06/20 08:12:25;;;;;;;12.27;11.27;;;27.50;99.90;;;;;;5094492;27;20280;-76
2023/06/20 08:14:52;;;;;;;12.25;11.25;;;27.60;99.90;;;;;;5094637;27;20262;-76
2023/06/20 08:17:19;;;;;;;11.23;10.30;;;27.80;99.90;;;;;;5099429;27;20212;-75
2023/06/20 08:19:46;;;;;;;11.82;10.82;;;27.80;99.90;;;;;;5096830;27;20209;-75
2023/06/20 08:22:14;;;;;;;12.05;11.02;;;27.80;99.90;;;;;;5094665;27;20299;-76
2023/06/20 08:24:41;;;;;;;11.88;10.90;;;27.80;99.90;;;;;;5095612;27;20205;-76
2023/06/20 08:27:08;;;;;;;11.18;10.25;;;27.80;99.90;;;;;;5101008;27;20243;-77
2023/06/20 08:29:35;;;;;;;11.88;10.98;;;27.70;99.90;;;;;;5101775;27;20300;-77
2023/06/20 08:32:02;;;;;;;11.15;10.25;;;27.80;99.90;;;;;;5100226;27;20714;-76
2023/06/20 08:34:29;;;;;;;10.95;10.05;;;27.90;99.90;;;;;;5103154;27;20223;-77
2023/06/20 08:36:56;;;;;;;11.75;10.73;;;28.20;99.90;;;;;;5106366;27;20215;-77
2023/06/20 08:39:24;;;;;;;11.45;10.45;;;28.40;99.90;;;;;;5103811;27;20229;-77
2023/06/20 08:41:52;;;;;;;11.15;10.25;;;28.50;99.90;;;;;;5107642;27;20242;-79
2023/06/20 08:44:19;;;;;;;11.63;10.73;;;28.60;99.90;;;;;;5108006;27;20685;-78
2023/06/20 08:46:46;;;;;;;12.25;11.25;;;28.40;99.90;;;;;;5110574;27;20197;-79
2023/06/20 08:49:14;;;;;;;11.57;10.57;;;28.50;99.90;;;;;;5106690;27;20797;-79
2023/06/20 08:51:47;;;;;;;11.68;10.63;;;28.40;99.90;;;;;;5109511;27;20208;-76
2023/06/20 08:54:17;;;;;;;11.68;10.60;;;28.50;99.90;;;;;;5113714;27;20203;-77
2023/06/20 08:56:46;;;;;;;11.45;10.30;;;28.50;99.90;;;;;;5113439;27;20196;-76
2023/06/20 08:59:13;;;;;;;11.50;10.52;;;28.70;99.90;;;;;;5110567;27;20740;-77
2023/06/20 09:01:40;;;;;;;10.43;9.52;;;28.70;99.90;;;;;;5101691;27;20250;-77
2023/06/20 09:04:10;;;;;;;12.40;11.27;;;28.80;99.90;;;;;;5102065;27;20209;-77
2023/06/20 09:06:38;;;;;;;11.77;10.77;;;28.90;99.90;;;;;;5100826;27;20203;-76
2023/06/20 09:09:05;;;;;;;11.57;10.68;;;28.90;99.90;;;;;;5104046;27;20213;-78
2023/06/20 09:11:35;;;;;;;11.27;10.20;;;29.00;99.90;;;;;;5102867;27;20666;-77
2023/06/20 09:14:04;;;;;;;11.15;10.25;;;29.00;99.90;;;;;;5102159;27;20291;-77
2023/06/20 09:16:31;;;;;;;12.27;11.05;;;28.90;99.90;;;;;;5110269;27;20228;-76
2023/06/20 09:19:01;;;;;;;10.65;9.75;;;28.80;99.90;;;;;;5103160;27;20758;-77
2023/06/20 09:21:28;;;;;;;10.90;9.93;;;28.80;99.90;;;;;;5100077;27;20299;-77
2023/06/20 09:24:06;;;;;;;11.32;10.32;;;28.90;99.90;;;;;;5108548;27;20292;-77
2023/06/20 09:26:33;;;;;;;9.93;9.07;;;29.30;99.90;;;;;;5104846;27;20232;-77
2023/06/20 09:29:09;;;;;;;11.10;10.20;;;29.40;99.90;;;;;;5103820;27;20274;-76
2023/06/20 09:31:43;;;;;;;10.73;9.77;;;29.50;99.90;;;;;;5107346;27;20201;-76
2023/06/20 09:34:12;;;;;;;8.77;8.15;;;29.60;99.90;;;;;;5103000;27;20252;-76
2023/06/20 09:36:40;;;;;;;10.40;9.50;;;29.60;99.90;;;;;;5103045;27;20871;-76
2023/06/20 09:39:11;;;;;;;10.40;8.82;;;29.80;99.90;;;;;;5102818;27;20858;-77
2023/06/20 09:41:44;;;;;;;9.75;8.85;;;30.00;99.90;;;;;;5102724;27;20687;-77
2023/06/20 09:44:13;;;;;;;9.60;8.77;;;30.10;99.90;;;;;;5100916;28;20315;-77
2023/06/20 09:46:40;;;;;;;9.30;8.50;;;30.10;99.90;;;;;;5103837;27;20283;-76
2023/06/20 09:49:08;;;;;;;9.13;8.32;;;30.20;99.90;;;;;;5102634;27;20290;-77
2023/06/20 09:51:38;;;;;;;8.82;8.13;;;30.30;99.90;;;;;;5104479;27;20665;-77
2023/06/20 09:54:06;;;;;;;8.82;8.02;;;30.20;99.90;;;;;;5102111;28;20660;-77
2023/06/20 09:56:46;;;;;;;8.75;7.95;;;30.20;99.90;;;;;;5102589;28;20313;-77
2023/06/20 09:59:16;;;;;;;8.93;8.23;;;30.30;99.90;;;;;;5107054;28;20303;-77
2023/06/20 10:01:44;;;;;;;9.25;8.45;;;30.20;99.90;;;;;;5109602;28;20207;-76
2023/06/20 10:04:11;;;;;;;11.25;9.07;;;30.10;99.90;;;;;;5102133;28;20304;-76
2023/06/20 10:06:40;;;;;;;9.35;8.48;;;30.10;99.90;;;;;;5103734;28;20813;-78
2023/06/20 10:09:07;;;;;;;8.60;7.90;;;30.20;99.90;;;;;;5109097;28;20250;-77
2023/06/20 10:11:35;;;;;;;8.45;7.75;;;30.10;99.90;;;;;;5108973;28;20204;-78
2023/06/20 10:14:03;;;;;;;8.68;7.95;;;30.30;99.90;;;;;;5106204;28;20198;-77
2023/06/20 10:16:33;;;;;;;8.25;7.53;;;30.40;99.90;;;;;;5104690;27;20204;-78
2023/06/20 10:19:16;;;;;;;9.27;8.00;;;30.60;99.90;;;;;;5101634;28;20224;-79
2023/06/20 10:21:58;;;;;;;9.05;8.20;;;30.70;99.90;;;;;;5106582;27;20197;-78
2023/06/20 10:24:29;;;;;;;11.00;8.93;;;31.00;99.90;;;;;;5103094;28;21754;-78
2023/06/20 10:27:00;;;;;;;9.20;8.40;;;30.80;99.90;;;;;;5106352;28;20239;-78
2023/06/20 10:29:28;;;;;;;7.97;7.18;;;30.60;99.90;;;;;;5104351;28;20238;-78
2023/06/20 10:31:57;;;;;;;8.70;7.90;;;30.80;99.90;;;;;;5103255;28;20916;-79
2023/06/20 10:34:29;;;;;;;7.50;6.90;;;30.80;99.90;;;;;;5106566;28;20237;-78
2023/06/20 10:37:16;;;;;;;7.63;6.95;;;30.90;99.90;;;;;;5113094;27;20235;-79
2023/06/20 10:39:53;;;;;;;7.43;6.85;;;31.00;99.90;;;;;;5106308;27;20221;-77
2023/06/20 10:42:37;;;;;;;6.00;5.55;;;31.20;99.90;;;;;;5108613;27;20196;-78
2023/06/20 10:45:22;;;;;;;8.02;6.30;;;31.20;99.90;;;;;;5107133;27;20212;-78
2023/06/20 10:47:51;;;;;;;6.47;5.90;;;31.30;99.90;;;;;;5106791;27;20719;-78
2023/06/20 10:50:19;;;;;;;6.68;6.07;;;31.50;99.90;;;;;;5112887;27;20209;-78
2023/06/20 10:52:46;;;;;;;7.03;6.43;;;31.40;99.90;;;;;;5108038;27;20204;-79
2023/06/20 10:55:17;;;;;;;6.53;5.90;;;31.50;99.90;;;;;;5105620;27;20197;-77
2023/06/20 10:57:45;;;;;;;5.82;5.32;;;31.60;99.90;;;;;;5110019;27;20793;-77
2023/06/20 11:00:14;;;;;;;9.38;6.10;;;31.80;99.90;;;;;;5110781;27;20197;-77
2023/06/20 11:02:42;;;;;;;6.57;5.97;;;32.00;99.90;;;;;;5106774;27;20337;-77
2023/06/20 11:05:10;;;;;;;7.45;6.63;;;31.90;99.90;;;;;;5108080;27;20201;-78
2023/06/20 11:07:58;;;;;;;7.70;6.88;;;31.80;99.90;;;;;;5106656;27;20200;-77
2023/06/20 11:10:29;;;;;;;6.97;6.28;;;31.60;99.90;;;;;;5111426;27;20242;-78
2023/06/20 11:12:57;;;;;;;7.80;7.20;;;31.40;99.90;;;;;;5106162;27;20737;-77
2023/06/20 11:15:26;;;;;;;7.30;6.68;;;31.40;99.90;;;;;;5109491;27;20224;-77
2023/06/20 11:17:54;;;;;;;7.47;6.80;;;31.30;99.90;;;;;;5116799;27;20251;-78
2023/06/20 11:20:26;;;;;;;7.70;6.93;;;31.30;99.90;;;;;;5113681;27;20233;-78
2023/06/20 11:22:55;;;;;;;9.25;7.07;;;31.40;99.90;;;;;;5107170;27;20303;-78
2023/06/20 11:25:27;;;;;;;7.10;6.45;;;31.40;99.90;;;;;;5106355;27;20212;-78
2023/06/20 11:27:55;;;;;;;7.50;6.90;;;31.40;99.90;;;;;;5105796;27;20650;-78
2023/06/20 11:30:26;;;;;;;7.20;6.50;;;31.40;99.90;;;;;;5100935;27;20733;-78
2023/06/20 11:33:05;;;;;;;8.07;7.22;;;31.50;99.90;;;;;;5101224;27;20255;-78
2023/06/20 11:35:51;;;;;;;6.63;6.13;;;31.50;99.90;;;;;;5104168;27;20208;-78
2023/06/20 11:38:20;;;;;;;7.07;6.47;;;31.50;99.90;;;;;;5106419;27;20216;-79
2023/06/20 11:40:50;;;;;;;6.75;6.25;;;31.50;99.90;;;;;;5101915;27;20215;-78
2023/06/20 11:43:22;;;;;;;7.00;6.40;;;31.70;99.90;;;;;;5109309;27;20213;-78
2023/06/20 11:45:49;;;;;;;7.07;6.47;;;31.90;99.90;;;;;;5104545;27;20228;-78
2023/06/20 11:48:17;;;;;;;6.95;6.35;;;32.00;99.90;;;;;;5088055;27;20685;-77
2023/06/20 11:50:55;;;;;;;7.28;6.60;;;32.00;99.90;;;;;;5102275;27;20199;-77
2023/06/20 11:53:26;;;;;;;6.85;6.35;;;31.70;99.90;;;;;;5103968;27;20200;-79
2023/06/20 11:55:54;;;;;;;7.80;7.15;;;31.80;99.90;;;;;;5105798;27;20197;-77
2023/06/20 11:58:21;;;;;;;10.18;6.85;;;31.70;99.90;;;;;;5110322;27;20304;-77
2023/06/20 12:01:05;;;;;;;8.50;6.95;;;31.80;99.90;;;;;;5110167;27;20283;-79
2023/06/20 12:03:32;;;;;;;7.28;6.68;;;31.80;99.90;;;;;;5109140;27;20221;-77
2023/06/20 12:06:00;;;;;;;6.93;6.28;;;31.90;99.90;;;;;;5116834;27;20201;-80
2023/06/20 12:08:33;;;;;;;8.25;7.43;;;32.00;99.90;;;;;;5110586;27;20216;-76
2023/06/20 12:11:04;;;;;;;7.03;6.32;;;31.90;99.90;;;;;;5105177;27;20258;-76
2023/06/20 12:13:32;;;;;;;7.00;6.40;;;31.80;99.90;;;;;;5104474;27;20639;-77
2023/06/20 12:15:59;;;;;;;7.40;6.80;;;31.80;99.90;;;;;;5104571;27;20805;-79
2023/06/20 12:18:26;;;;;;;7.57;6.85;;;31.60;99.90;;;;;;5109971;27;20229;-79
2023/06/20 12:20:53;;;;;;;7.22;6.50;;;31.70;99.90;;;;;;5102685;28;20667;-77
2023/06/20 12:23:21;;;;;;;6.80;6.20;;;31.80;99.90;;;;;;5106800;27;20316;-77
2023/06/20 12:25:48;;;;;;;7.05;6.45;;;32.00;99.90;;;;;;5108436;27;20643;-77
2023/06/20 12:28:15;;;;;;;7.32;6.63;;;32.10;99.90;;;;;;5098830;27;20323;-77
2023/06/20 12:30:42;;;;;;;8.50;6.43;;;32.20;99.90;;;;;;5110783;27;20210;-77
2023/06/20 12:33:12;;;;;;;7.03;6.40;;;32.20;99.90;;;;;;5105781;27;20809;-78
2023/06/20 12:35:39;;;;;;;6.90;6.20;;;32.20;99.90;;;;;;5106331;27;20208;-77
2023/06/20 12:38:06;;;;;;;9.15;6.68;;;32.20;99.90;;;;;;5106915;27;20228;-78
2023/06/20 12:40:35;;;;;;;7.20;6.50;;;32.10;99.90;;;;;;5109389;27;20840;-78
2023/06/20 12:43:02;;;;;;;7.03;6.32;;;32.10;99.90;;;;;;5105227;27;20221;-78
2023/06/20 12:45:29;;;;;;;7.47;6.13;;;32.00;99.90;;;;;;5107943;27;20301;-78
2023/06/20 12:47:56;;;;;;;8.20;7.18;;;32.10;99.90;;;;;;5106458;27;20267;-77
2023/06/20 12:50:23;;;;;;;6.38;5.82;;;32.10;99.90;;;;;;5106405;27;20289;-77
2023/06/20 12:52:51;;;;;;;7.35;6.03;;;32.00;99.90;;;;;;5106893;27;20200;-80
2023/06/20 12:55:18;;;;;;;6.80;6.05;;;32.10;99.90;;;;;;5107469;27;20201;-77
2023/06/20 12:57:46;;;;;;;7.70;6.28;;;32.20;99.90;;;;;;5108859;27;20325;-77
2023/06/20 13:00:15;;;;;;;6.93;6.22;;;32.20;99.90;;;;;;5106037;27;20254;-79
2023/06/20 13:02:41;;;;;;;6.78;6.15;;;32.20;99.90;;;;;;5112205;27;20896;-78
2023/06/20 13:05:09;;;;;;;7.57;6.03;;;32.10;99.90;;;;;;5127903;27;20254;-79
2023/06/20 13:07:36;;;;;;;6.53;5.90;;;32.00;99.90;;;;;;5112198;27;20192;-77
2023/06/20 13:10:06;;;;;;;8.88;6.45;;;31.90;99.90;;;;;;5103758;27;20193;-78
2023/06/20 13:12:34;;;;;;;7.05;6.35;;;31.80;99.90;;;;;;5109404;27;20555;-79
2023/06/20 13:15:04;;;;;;;7.80;6.18;;;31.80;99.90;;;;;;5108929;27;20223;-79
2023/06/20 13:17:32;;;;;;;6.60;6.00;;;31.80;99.90;;;;;;5112097;27;20227;-79
2023/06/20 13:19:59;;;;;;;7.30;6.70;;;31.80;99.90;;;;;;5106619;27;20203;-79
2023/06/20 13:22:27;;;;;;;7.32;6.63;;;31.70;99.90;;;;;;5097158;27;20344;-78